<?xml version="1.0" encoding="UTF-8" standalone="no" ?>
<gpx xmlns="http://www.topografix.com/GPX/1/1" xmlns:xsi="http://www.w3.org/2001/XMLSchema-instance" xsi:schemaLocation="http://www.topografix.com/GPX/1/1 http://www.topografix.com/GPX/1/1/gpx.xsd" version="1.1" creator="VisuGPX - https://www.visugpx.com">
  <metadata>
    <name>font de griffe-col du vent</name>
    <desc><![CDATA[la grande traversée de l'herault]]></desc>
  </metadata>
  <trk>
    <name><![CDATA[font du griffe/ la vernede]]></name>
    <trkseg>
      <trkpt lat="43.73374" lon="3.49109">
        <ele>389</ele>
        <time>2018-06-03T09:46:42.375Z</time>
      </trkpt>
      <trkpt lat="43.73422" lon="3.49137">
        <ele>397</ele>
        <time>2018-06-03T09:46:43.375Z</time>
      </trkpt>
      <trkpt lat="43.7346" lon="3.49189">
        <ele>401</ele>
        <time>2018-06-03T09:46:44.375Z</time>
      </trkpt>
      <trkpt lat="43.73484" lon="3.49222">
        <ele>403</ele>
        <time>2018-06-03T09:46:45.375Z</time>
      </trkpt>
      <trkpt lat="43.73512" lon="3.49258">
        <ele>406</ele>
        <time>2018-06-03T09:46:46.375Z</time>
      </trkpt>
      <trkpt lat="43.73563" lon="3.49326">
        <ele>410</ele>
        <time>2018-06-03T09:46:47.375Z</time>
      </trkpt>
      <trkpt lat="43.73591" lon="3.4935">
        <ele>416</ele>
        <time>2018-06-03T09:46:48.375Z</time>
      </trkpt>
      <trkpt lat="43.73616" lon="3.49397">
        <ele>419</ele>
        <time>2018-06-03T09:46:49.375Z</time>
      </trkpt>
      <trkpt lat="43.73634" lon="3.49469">
        <ele>418</ele>
        <time>2018-06-03T09:46:50.375Z</time>
      </trkpt>
      <trkpt lat="43.73665" lon="3.49503">
        <ele>426</ele>
        <time>2018-06-03T09:46:51.375Z</time>
      </trkpt>
      <trkpt lat="43.73719" lon="3.49566">
        <ele>434</ele>
        <time>2018-06-03T09:46:52.375Z</time>
      </trkpt>
      <trkpt lat="43.73768" lon="3.49636">
        <ele>440</ele>
        <time>2018-06-03T09:46:53.375Z</time>
      </trkpt>
      <trkpt lat="43.73791" lon="3.49677">
        <ele>443</ele>
        <time>2018-06-03T09:46:54.375Z</time>
      </trkpt>
      <trkpt lat="43.73822" lon="3.49715">
        <ele>449</ele>
        <time>2018-06-03T09:46:55.375Z</time>
      </trkpt>
      <trkpt lat="43.73842" lon="3.49768">
        <ele>449</ele>
        <time>2018-06-03T09:46:56.375Z</time>
      </trkpt>
      <trkpt lat="43.73867" lon="3.49812">
        <ele>454</ele>
        <time>2018-06-03T09:46:57.375Z</time>
      </trkpt>
      <trkpt lat="43.73857" lon="3.49867">
        <ele>451</ele>
        <time>2018-06-03T09:46:58.375Z</time>
      </trkpt>
      <trkpt lat="43.73888" lon="3.4994">
        <ele>452</ele>
        <time>2018-06-03T09:46:59.375Z</time>
      </trkpt>
      <trkpt lat="43.73926" lon="3.49941">
        <ele>456</ele>
        <time>2018-06-03T09:47:00.375Z</time>
      </trkpt>
      <trkpt lat="43.73941" lon="3.49983">
        <ele>454</ele>
        <time>2018-06-03T09:47:01.375Z</time>
      </trkpt>
      <trkpt lat="43.73966" lon="3.50016">
        <ele>455</ele>
        <time>2018-06-03T09:47:02.375Z</time>
      </trkpt>
      <trkpt lat="43.73993" lon="3.50051">
        <ele>457</ele>
        <time>2018-06-03T09:47:03.375Z</time>
      </trkpt>
      <trkpt lat="43.7397" lon="3.50096">
        <ele>448</ele>
        <time>2018-06-03T09:47:04.375Z</time>
      </trkpt>
      <trkpt lat="43.73974" lon="3.50135">
        <ele>444</ele>
        <time>2018-06-03T09:47:05.375Z</time>
      </trkpt>
      <trkpt lat="43.74002" lon="3.50132">
        <ele>448</ele>
        <time>2018-06-03T09:47:06.375Z</time>
      </trkpt>
      <trkpt lat="43.74035" lon="3.50108">
        <ele>456</ele>
        <time>2018-06-03T09:47:07.375Z</time>
      </trkpt>
      <trkpt lat="43.74071" lon="3.50089">
        <ele>464</ele>
        <time>2018-06-03T09:47:08.375Z</time>
      </trkpt>
      <trkpt lat="43.74095" lon="3.50141">
        <ele>459</ele>
        <time>2018-06-03T09:47:09.375Z</time>
      </trkpt>
      <trkpt lat="43.74129" lon="3.50183">
        <ele>463</ele>
        <time>2018-06-03T09:47:10.375Z</time>
      </trkpt>
      <trkpt lat="43.74131" lon="3.50229">
        <ele>459</ele>
        <time>2018-06-03T09:47:11.375Z</time>
      </trkpt>
      <trkpt lat="43.74123" lon="3.50267">
        <ele>454</ele>
        <time>2018-06-03T09:47:12.375Z</time>
      </trkpt>
      <trkpt lat="43.74117" lon="3.50307">
        <ele>451</ele>
        <time>2018-06-03T09:47:13.375Z</time>
      </trkpt>
      <trkpt lat="43.74115" lon="3.50371">
        <ele>446</ele>
        <time>2018-06-03T09:47:14.375Z</time>
      </trkpt>
      <trkpt lat="43.74101" lon="3.50412">
        <ele>441</ele>
        <time>2018-06-03T09:47:15.375Z</time>
      </trkpt>
      <trkpt lat="43.74089" lon="3.50459">
        <ele>439</ele>
        <time>2018-06-03T09:47:16.375Z</time>
      </trkpt>
      <trkpt lat="43.74093" lon="3.50499">
        <ele>439</ele>
        <time>2018-06-03T09:47:17.375Z</time>
      </trkpt>
      <trkpt lat="43.74099" lon="3.50537">
        <ele>437</ele>
        <time>2018-06-03T09:47:18.375Z</time>
      </trkpt>
      <trkpt lat="43.74099" lon="3.50586">
        <ele>434</ele>
        <time>2018-06-03T09:47:19.375Z</time>
      </trkpt>
      <trkpt lat="43.74089" lon="3.50634">
        <ele>432</ele>
        <time>2018-06-03T09:47:20.375Z</time>
      </trkpt>
      <trkpt lat="43.74067" lon="3.50684">
        <ele>430</ele>
        <time>2018-06-03T09:47:21.375Z</time>
      </trkpt>
      <trkpt lat="43.74052" lon="3.50721">
        <ele>428</ele>
        <time>2018-06-03T09:47:22.375Z</time>
      </trkpt>
      <trkpt lat="43.74047" lon="3.5077">
        <ele>427</ele>
        <time>2018-06-03T09:47:23.375Z</time>
      </trkpt>
      <trkpt lat="43.74026" lon="3.5083">
        <ele>426</ele>
        <time>2018-06-03T09:47:24.375Z</time>
      </trkpt>
      <trkpt lat="43.74012" lon="3.50872">
        <ele>425</ele>
        <time>2018-06-03T09:47:25.375Z</time>
      </trkpt>
      <trkpt lat="43.73988" lon="3.50901">
        <ele>424</ele>
        <time>2018-06-03T09:47:26.375Z</time>
      </trkpt>
      <trkpt lat="43.73972" lon="3.50955">
        <ele>423</ele>
        <time>2018-06-03T09:47:27.375Z</time>
      </trkpt>
      <trkpt lat="43.73948" lon="3.5098">
        <ele>421</ele>
        <time>2018-06-03T09:47:28.375Z</time>
      </trkpt>
      <trkpt lat="43.73922" lon="3.51005">
        <ele>417</ele>
        <time>2018-06-03T09:47:29.375Z</time>
      </trkpt>
      <trkpt lat="43.73903" lon="3.51047">
        <ele>416</ele>
        <time>2018-06-03T09:47:30.375Z</time>
      </trkpt>
      <trkpt lat="43.73919" lon="3.5109">
        <ele>412</ele>
        <time>2018-06-03T09:47:31.375Z</time>
      </trkpt>
      <trkpt lat="43.73953" lon="3.5111">
        <ele>410</ele>
        <time>2018-06-03T09:47:32.375Z</time>
      </trkpt>
      <trkpt lat="43.73984" lon="3.51132">
        <ele>406</ele>
        <time>2018-06-03T09:47:33.375Z</time>
      </trkpt>
      <trkpt lat="43.74007" lon="3.51101">
        <ele>412</ele>
        <time>2018-06-03T09:47:34.375Z</time>
      </trkpt>
      <trkpt lat="43.74038" lon="3.51118">
        <ele>409</ele>
        <time>2018-06-03T09:47:35.375Z</time>
      </trkpt>
      <trkpt lat="43.74055" lon="3.51157">
        <ele>399</ele>
        <time>2018-06-03T09:47:36.375Z</time>
      </trkpt>
      <trkpt lat="43.74085" lon="3.51149">
        <ele>401</ele>
        <time>2018-06-03T09:47:37.375Z</time>
      </trkpt>
      <trkpt lat="43.74117" lon="3.51157">
        <ele>397</ele>
        <time>2018-06-03T09:47:38.375Z</time>
      </trkpt>
      <trkpt lat="43.74143" lon="3.51184">
        <ele>389</ele>
        <time>2018-06-03T09:47:39.375Z</time>
      </trkpt>
      <trkpt lat="43.74171" lon="3.51187">
        <ele>384</ele>
        <time>2018-06-03T09:47:40.375Z</time>
      </trkpt>
      <trkpt lat="43.74201" lon="3.51201">
        <ele>377</ele>
        <time>2018-06-03T09:47:41.375Z</time>
      </trkpt>
      <trkpt lat="43.74229" lon="3.51176">
        <ele>377</ele>
        <time>2018-06-03T09:47:42.375Z</time>
      </trkpt>
      <trkpt lat="43.74258" lon="3.51157">
        <ele>375</ele>
        <time>2018-06-03T09:47:43.375Z</time>
      </trkpt>
      <trkpt lat="43.74269" lon="3.51119">
        <ele>378</ele>
        <time>2018-06-03T09:47:44.375Z</time>
      </trkpt>
      <trkpt lat="43.7428" lon="3.51076">
        <ele>380</ele>
        <time>2018-06-03T09:47:45.375Z</time>
      </trkpt>
      <trkpt lat="43.74297" lon="3.51042">
        <ele>380</ele>
        <time>2018-06-03T09:47:46.375Z</time>
      </trkpt>
      <trkpt lat="43.74312" lon="3.51041">
        <ele>378</ele>
        <time>2018-06-03T09:47:47.375Z</time>
      </trkpt>
      <trkpt lat="43.74323" lon="3.51081">
        <ele>374</ele>
        <time>2018-06-03T09:47:48.375Z</time>
      </trkpt>
      <trkpt lat="43.74323" lon="3.51123">
        <ele>373</ele>
        <time>2018-06-03T09:47:49.375Z</time>
      </trkpt>
      <trkpt lat="43.74307" lon="3.5116">
        <ele>374</ele>
        <time>2018-06-03T09:47:50.375Z</time>
      </trkpt>
      <trkpt lat="43.74285" lon="3.51208">
        <ele>373</ele>
        <time>2018-06-03T09:47:51.375Z</time>
      </trkpt>
      <trkpt lat="43.74262" lon="3.51239">
        <ele>369</ele>
        <time>2018-06-03T09:47:52.375Z</time>
      </trkpt>
      <trkpt lat="43.74241" lon="3.51278">
        <ele>366</ele>
        <time>2018-06-03T09:47:53.375Z</time>
      </trkpt>
      <trkpt lat="43.7422" lon="3.5131">
        <ele>366</ele>
        <time>2018-06-03T09:47:54.375Z</time>
      </trkpt>
      <trkpt lat="43.74207" lon="3.51346">
        <ele>365</ele>
        <time>2018-06-03T09:47:55.375Z</time>
      </trkpt>
      <trkpt lat="43.74208" lon="3.51393">
        <ele>363</ele>
        <time>2018-06-03T09:47:56.375Z</time>
      </trkpt>
      <trkpt lat="43.74213" lon="3.51439">
        <ele>359</ele>
        <time>2018-06-03T09:47:57.375Z</time>
      </trkpt>
      <trkpt lat="43.742" lon="3.51475">
        <ele>351</ele>
        <time>2018-06-03T09:47:58.375Z</time>
      </trkpt>
      <trkpt lat="43.74185" lon="3.51518">
        <ele>343</ele>
        <time>2018-06-03T09:47:59.375Z</time>
      </trkpt>
      <trkpt lat="43.742" lon="3.51559">
        <ele>338</ele>
        <time>2018-06-03T09:48:00.375Z</time>
      </trkpt>
      <trkpt lat="43.74231" lon="3.51573">
        <ele>337</ele>
        <time>2018-06-03T09:48:01.375Z</time>
      </trkpt>
      <trkpt lat="43.74262" lon="3.51587">
        <ele>339</ele>
        <time>2018-06-03T09:48:02.375Z</time>
      </trkpt>
      <trkpt lat="43.743" lon="3.51616">
        <ele>346</ele>
        <time>2018-06-03T09:48:03.375Z</time>
      </trkpt>
      <trkpt lat="43.7433" lon="3.51627">
        <ele>348</ele>
        <time>2018-06-03T09:48:04.375Z</time>
      </trkpt>
      <trkpt lat="43.74353" lon="3.51655">
        <ele>349</ele>
        <time>2018-06-03T09:48:05.375Z</time>
      </trkpt>
      <trkpt lat="43.74385" lon="3.51667">
        <ele>351</ele>
        <time>2018-06-03T09:48:06.375Z</time>
      </trkpt>
      <trkpt lat="43.74413" lon="3.51676">
        <ele>356</ele>
        <time>2018-06-03T09:48:07.375Z</time>
      </trkpt>
      <trkpt lat="43.74455" lon="3.51681">
        <ele>360</ele>
        <time>2018-06-03T09:48:08.375Z</time>
      </trkpt>
      <trkpt lat="43.74491" lon="3.51697">
        <ele>364</ele>
        <time>2018-06-03T09:48:09.375Z</time>
      </trkpt>
      <trkpt lat="43.74524" lon="3.51701">
        <ele>367</ele>
        <time>2018-06-03T09:48:10.375Z</time>
      </trkpt>
      <trkpt lat="43.74555" lon="3.517">
        <ele>370</ele>
        <time>2018-06-03T09:48:11.375Z</time>
      </trkpt>
      <trkpt lat="43.74585" lon="3.5169">
        <ele>373</ele>
        <time>2018-06-03T09:48:12.375Z</time>
      </trkpt>
      <trkpt lat="43.74622" lon="3.51719">
        <ele>377</ele>
        <time>2018-06-03T09:48:13.375Z</time>
      </trkpt>
      <trkpt lat="43.74651" lon="3.51737">
        <ele>377</ele>
        <time>2018-06-03T09:48:14.375Z</time>
      </trkpt>
      <trkpt lat="43.74689" lon="3.5177">
        <ele>382</ele>
        <time>2018-06-03T09:48:15.375Z</time>
      </trkpt>
      <trkpt lat="43.74715" lon="3.51793">
        <ele>386</ele>
        <time>2018-06-03T09:48:16.375Z</time>
      </trkpt>
      <trkpt lat="43.74742" lon="3.5182">
        <ele>384</ele>
        <time>2018-06-03T09:48:17.375Z</time>
      </trkpt>
      <trkpt lat="43.74783" lon="3.51854">
        <ele>387</ele>
        <time>2018-06-03T09:48:18.375Z</time>
      </trkpt>
      <trkpt lat="43.74812" lon="3.51875">
        <ele>388</ele>
        <time>2018-06-03T09:48:19.375Z</time>
      </trkpt>
      <trkpt lat="43.74839" lon="3.51919">
        <ele>386</ele>
        <time>2018-06-03T09:48:20.375Z</time>
      </trkpt>
      <trkpt lat="43.74857" lon="3.51954">
        <ele>391</ele>
        <time>2018-06-03T09:48:21.375Z</time>
      </trkpt>
      <trkpt lat="43.74862" lon="3.51992">
        <ele>394</ele>
        <time>2018-06-03T09:48:22.375Z</time>
      </trkpt>
      <trkpt lat="43.74861" lon="3.52042">
        <ele>398</ele>
        <time>2018-06-03T09:48:23.375Z</time>
      </trkpt>
      <trkpt lat="43.74849" lon="3.52081">
        <ele>399</ele>
        <time>2018-06-03T09:48:24.375Z</time>
      </trkpt>
      <trkpt lat="43.74837" lon="3.52116">
        <ele>399</ele>
        <time>2018-06-03T09:48:25.375Z</time>
      </trkpt>
      <trkpt lat="43.74842" lon="3.52157">
        <ele>401</ele>
        <time>2018-06-03T09:48:26.375Z</time>
      </trkpt>
      <trkpt lat="43.74846" lon="3.52213">
        <ele>404</ele>
        <time>2018-06-03T09:48:27.375Z</time>
      </trkpt>
      <trkpt lat="43.74871" lon="3.52243">
        <ele>410</ele>
        <time>2018-06-03T09:48:28.375Z</time>
      </trkpt>
      <trkpt lat="43.74866" lon="3.52284">
        <ele>410</ele>
        <time>2018-06-03T09:48:29.375Z</time>
      </trkpt>
      <trkpt lat="43.74846" lon="3.52329">
        <ele>408</ele>
        <time>2018-06-03T09:48:30.375Z</time>
      </trkpt>
      <trkpt lat="43.74837" lon="3.52366">
        <ele>407</ele>
        <time>2018-06-03T09:48:31.375Z</time>
      </trkpt>
      <trkpt lat="43.74834" lon="3.52413">
        <ele>407</ele>
        <time>2018-06-03T09:48:32.375Z</time>
      </trkpt>
      <trkpt lat="43.74868" lon="3.52428">
        <ele>408</ele>
        <time>2018-06-03T09:48:33.375Z</time>
      </trkpt>
      <trkpt lat="43.74914" lon="3.52456">
        <ele>409</ele>
        <time>2018-06-03T09:48:34.375Z</time>
      </trkpt>
      <trkpt lat="43.74938" lon="3.5249">
        <ele>410</ele>
        <time>2018-06-03T09:48:35.375Z</time>
      </trkpt>
      <trkpt lat="43.74957" lon="3.52522">
        <ele>412</ele>
        <time>2018-06-03T09:48:36.375Z</time>
      </trkpt>
      <trkpt lat="43.74975" lon="3.52576">
        <ele>413</ele>
        <time>2018-06-03T09:48:37.375Z</time>
      </trkpt>
      <trkpt lat="43.75013" lon="3.52638">
        <ele>414</ele>
        <time>2018-06-03T09:48:38.375Z</time>
      </trkpt>
      <trkpt lat="43.75043" lon="3.52651">
        <ele>416</ele>
        <time>2018-06-03T09:48:39.375Z</time>
      </trkpt>
      <trkpt lat="43.75044" lon="3.52686">
        <ele>417</ele>
        <time>2018-06-03T09:48:40.375Z</time>
      </trkpt>
      <trkpt lat="43.75032" lon="3.52721">
        <ele>418</ele>
        <time>2018-06-03T09:48:41.375Z</time>
      </trkpt>
      <trkpt lat="43.75018" lon="3.52757">
        <ele>419</ele>
        <time>2018-06-03T09:48:42.375Z</time>
      </trkpt>
      <trkpt lat="43.74988" lon="3.52755">
        <ele>418</ele>
        <time>2018-06-03T09:48:43.375Z</time>
      </trkpt>
      <trkpt lat="43.74958" lon="3.52791">
        <ele>423</ele>
        <time>2018-06-03T09:48:44.375Z</time>
      </trkpt>
      <trkpt lat="43.74935" lon="3.52835">
        <ele>428</ele>
        <time>2018-06-03T09:48:45.375Z</time>
      </trkpt>
      <trkpt lat="43.74942" lon="3.52888">
        <ele>434</ele>
        <time>2018-06-03T09:48:46.375Z</time>
      </trkpt>
      <trkpt lat="43.74949" lon="3.52931">
        <ele>438</ele>
        <time>2018-06-03T09:48:47.375Z</time>
      </trkpt>
      <trkpt lat="43.74954" lon="3.52988">
        <ele>443</ele>
        <time>2018-06-03T09:48:48.375Z</time>
      </trkpt>
      <trkpt lat="43.74934" lon="3.53027">
        <ele>444</ele>
        <time>2018-06-03T09:48:49.375Z</time>
      </trkpt>
      <trkpt lat="43.74917" lon="3.53058">
        <ele>444</ele>
        <time>2018-06-03T09:48:50.375Z</time>
      </trkpt>
      <trkpt lat="43.74893" lon="3.53105">
        <ele>448</ele>
        <time>2018-06-03T09:48:51.375Z</time>
      </trkpt>
      <trkpt lat="43.74865" lon="3.53138">
        <ele>451</ele>
        <time>2018-06-03T09:48:52.375Z</time>
      </trkpt>
      <trkpt lat="43.74827" lon="3.53149">
        <ele>452</ele>
        <time>2018-06-03T09:48:53.375Z</time>
      </trkpt>
      <trkpt lat="43.74793" lon="3.53174">
        <ele>454</ele>
        <time>2018-06-03T09:48:54.375Z</time>
      </trkpt>
      <trkpt lat="43.7476" lon="3.53163">
        <ele>455</ele>
        <time>2018-06-03T09:48:55.375Z</time>
      </trkpt>
      <trkpt lat="43.7473" lon="3.53145">
        <ele>458</ele>
        <time>2018-06-03T09:48:56.375Z</time>
      </trkpt>
      <trkpt lat="43.747" lon="3.53146">
        <ele>462</ele>
        <time>2018-06-03T09:48:57.375Z</time>
      </trkpt>
      <trkpt lat="43.74677" lon="3.53113">
        <ele>464</ele>
        <time>2018-06-03T09:48:58.375Z</time>
      </trkpt>
      <trkpt lat="43.74657" lon="3.53058">
        <ele>467</ele>
        <time>2018-06-03T09:48:59.375Z</time>
      </trkpt>
      <trkpt lat="43.74651" lon="3.53092">
        <ele>469</ele>
        <time>2018-06-03T09:49:00.375Z</time>
      </trkpt>
      <trkpt lat="43.74646" lon="3.53139">
        <ele>472</ele>
        <time>2018-06-03T09:49:01.375Z</time>
      </trkpt>
      <trkpt lat="43.74632" lon="3.53185">
        <ele>479</ele>
        <time>2018-06-03T09:49:02.375Z</time>
      </trkpt>
      <trkpt lat="43.74648" lon="3.53216">
        <ele>477</ele>
        <time>2018-06-03T09:49:03.375Z</time>
      </trkpt>
      <trkpt lat="43.74648" lon="3.53255">
        <ele>481</ele>
        <time>2018-06-03T09:49:04.375Z</time>
      </trkpt>
      <trkpt lat="43.7465" lon="3.533">
        <ele>486</ele>
        <time>2018-06-03T09:49:05.375Z</time>
      </trkpt>
      <trkpt lat="43.74684" lon="3.53306">
        <ele>483</ele>
        <time>2018-06-03T09:49:06.375Z</time>
      </trkpt>
      <trkpt lat="43.74713" lon="3.53288">
        <ele>479</ele>
        <time>2018-06-03T09:49:07.375Z</time>
      </trkpt>
      <trkpt lat="43.74756" lon="3.5329">
        <ele>479</ele>
        <time>2018-06-03T09:49:08.375Z</time>
      </trkpt>
      <trkpt lat="43.74796" lon="3.53312">
        <ele>485</ele>
        <time>2018-06-03T09:49:09.375Z</time>
      </trkpt>
      <trkpt lat="43.74828" lon="3.53315">
        <ele>485</ele>
        <time>2018-06-03T09:49:10.375Z</time>
      </trkpt>
      <trkpt lat="43.74867" lon="3.53291">
        <ele>481</ele>
        <time>2018-06-03T09:49:11.375Z</time>
      </trkpt>
      <trkpt lat="43.74904" lon="3.53247">
        <ele>470</ele>
        <time>2018-06-03T09:49:12.375Z</time>
      </trkpt>
      <trkpt lat="43.74928" lon="3.53267">
        <ele>478</ele>
        <time>2018-06-03T09:49:13.375Z</time>
      </trkpt>
      <trkpt lat="43.7496" lon="3.53289">
        <ele>483</ele>
        <time>2018-06-03T09:49:14.375Z</time>
      </trkpt>
      <trkpt lat="43.74988" lon="3.53292">
        <ele>483</ele>
        <time>2018-06-03T09:49:15.375Z</time>
      </trkpt>
      <trkpt lat="43.75004" lon="3.53328">
        <ele>488</ele>
        <time>2018-06-03T09:49:16.375Z</time>
      </trkpt>
      <trkpt lat="43.75028" lon="3.53344">
        <ele>492</ele>
        <time>2018-06-03T09:49:17.375Z</time>
      </trkpt>
      <trkpt lat="43.75055" lon="3.53334">
        <ele>487</ele>
        <time>2018-06-03T09:49:18.375Z</time>
      </trkpt>
      <trkpt lat="43.75089" lon="3.53337">
        <ele>487</ele>
        <time>2018-06-03T09:49:19.375Z</time>
      </trkpt>
      <trkpt lat="43.75118" lon="3.53331">
        <ele>484</ele>
        <time>2018-06-03T09:49:20.375Z</time>
      </trkpt>
      <trkpt lat="43.75152" lon="3.53312">
        <ele>481</ele>
        <time>2018-06-03T09:49:21.375Z</time>
      </trkpt>
      <trkpt lat="43.75167" lon="3.53278">
        <ele>476</ele>
        <time>2018-06-03T09:49:22.375Z</time>
      </trkpt>
      <trkpt lat="43.75189" lon="3.53326">
        <ele>479</ele>
        <time>2018-06-03T09:49:23.375Z</time>
      </trkpt>
      <trkpt lat="43.75187" lon="3.53366">
        <ele>485</ele>
        <time>2018-06-03T09:49:24.375Z</time>
      </trkpt>
      <trkpt lat="43.75201" lon="3.53407">
        <ele>489</ele>
        <time>2018-06-03T09:49:25.375Z</time>
      </trkpt>
      <trkpt lat="43.75234" lon="3.53434">
        <ele>492</ele>
        <time>2018-06-03T09:49:26.375Z</time>
      </trkpt>
      <trkpt lat="43.75262" lon="3.5339">
        <ele>482</ele>
        <time>2018-06-03T09:49:27.375Z</time>
      </trkpt>
      <trkpt lat="43.75298" lon="3.53378">
        <ele>485</ele>
        <time>2018-06-03T09:49:28.375Z</time>
      </trkpt>
      <trkpt lat="43.75325" lon="3.53356">
        <ele>483</ele>
        <time>2018-06-03T09:49:29.375Z</time>
      </trkpt>
      <trkpt lat="43.7534" lon="3.53317">
        <ele>478</ele>
        <time>2018-06-03T09:49:30.375Z</time>
      </trkpt>
      <trkpt lat="43.75368" lon="3.53316">
        <ele>482</ele>
        <time>2018-06-03T09:49:31.375Z</time>
      </trkpt>
      <trkpt lat="43.75395" lon="3.53315">
        <ele>486</ele>
        <time>2018-06-03T09:49:32.375Z</time>
      </trkpt>
      <trkpt lat="43.75407" lon="3.53258">
        <ele>480</ele>
        <time>2018-06-03T09:49:33.375Z</time>
      </trkpt>
      <trkpt lat="43.75437" lon="3.53258">
        <ele>478</ele>
        <time>2018-06-03T09:49:34.375Z</time>
      </trkpt>
      <trkpt lat="43.75448" lon="3.53296">
        <ele>482</ele>
        <time>2018-06-03T09:49:35.375Z</time>
      </trkpt>
      <trkpt lat="43.75461" lon="3.53333">
        <ele>485</ele>
        <time>2018-06-03T09:49:36.375Z</time>
      </trkpt>
      <trkpt lat="43.75486" lon="3.53372">
        <ele>487</ele>
        <time>2018-06-03T09:49:37.375Z</time>
      </trkpt>
      <trkpt lat="43.75496" lon="3.53418">
        <ele>493</ele>
        <time>2018-06-03T09:49:38.375Z</time>
      </trkpt>
      <trkpt lat="43.75516" lon="3.53455">
        <ele>499</ele>
        <time>2018-06-03T09:49:39.375Z</time>
      </trkpt>
      <trkpt lat="43.75537" lon="3.53481">
        <ele>505</ele>
        <time>2018-06-03T09:49:40.375Z</time>
      </trkpt>
      <trkpt lat="43.75558" lon="3.53424">
        <ele>499</ele>
        <time>2018-06-03T09:49:41.375Z</time>
      </trkpt>
      <trkpt lat="43.75573" lon="3.53372">
        <ele>493</ele>
        <time>2018-06-03T09:49:42.375Z</time>
      </trkpt>
      <trkpt lat="43.75605" lon="3.53344">
        <ele>491</ele>
        <time>2018-06-03T09:49:43.375Z</time>
      </trkpt>
      <trkpt lat="43.75642" lon="3.53316">
        <ele>491</ele>
        <time>2018-06-03T09:49:44.375Z</time>
      </trkpt>
      <trkpt lat="43.75663" lon="3.53339">
        <ele>496</ele>
        <time>2018-06-03T09:49:45.375Z</time>
      </trkpt>
      <trkpt lat="43.75656" lon="3.53395">
        <ele>499</ele>
        <time>2018-06-03T09:49:46.375Z</time>
      </trkpt>
      <trkpt lat="43.75688" lon="3.5342">
        <ele>502</ele>
        <time>2018-06-03T09:49:47.375Z</time>
      </trkpt>
      <trkpt lat="43.75723" lon="3.53403">
        <ele>502</ele>
        <time>2018-06-03T09:49:48.375Z</time>
      </trkpt>
      <trkpt lat="43.75738" lon="3.53368">
        <ele>500</ele>
        <time>2018-06-03T09:49:49.375Z</time>
      </trkpt>
      <trkpt lat="43.75757" lon="3.5334">
        <ele>498</ele>
        <time>2018-06-03T09:49:50.375Z</time>
      </trkpt>
      <trkpt lat="43.75785" lon="3.53348">
        <ele>497</ele>
        <time>2018-06-03T09:49:51.375Z</time>
      </trkpt>
      <trkpt lat="43.75796" lon="3.53391">
        <ele>500</ele>
        <time>2018-06-03T09:49:52.375Z</time>
      </trkpt>
      <trkpt lat="43.75827" lon="3.53438">
        <ele>504</ele>
        <time>2018-06-03T09:49:53.375Z</time>
      </trkpt>
      <trkpt lat="43.7584" lon="3.53482">
        <ele>508</ele>
        <time>2018-06-03T09:49:54.375Z</time>
      </trkpt>
      <trkpt lat="43.75857" lon="3.53513">
        <ele>508</ele>
        <time>2018-06-03T09:49:55.375Z</time>
      </trkpt>
      <trkpt lat="43.75894" lon="3.5351">
        <ele>501</ele>
        <time>2018-06-03T09:49:56.375Z</time>
      </trkpt>
      <trkpt lat="43.75894" lon="3.53557">
        <ele>502</ele>
        <time>2018-06-03T09:49:57.375Z</time>
      </trkpt>
      <trkpt lat="43.7587" lon="3.53605">
        <ele>509</ele>
        <time>2018-06-03T09:49:58.375Z</time>
      </trkpt>
      <trkpt lat="43.75863" lon="3.53665">
        <ele>509</ele>
        <time>2018-06-03T09:49:59.375Z</time>
      </trkpt>
      <trkpt lat="43.75885" lon="3.5369">
        <ele>509</ele>
        <time>2018-06-03T09:50:00.375Z</time>
      </trkpt>
      <trkpt lat="43.75911" lon="3.53686">
        <ele>506</ele>
        <time>2018-06-03T09:50:01.375Z</time>
      </trkpt>
      <trkpt lat="43.75937" lon="3.5366">
        <ele>506</ele>
        <time>2018-06-03T09:50:02.375Z</time>
      </trkpt>
      <trkpt lat="43.75963" lon="3.53641">
        <ele>509</ele>
        <time>2018-06-03T09:50:03.375Z</time>
      </trkpt>
      <trkpt lat="43.75986" lon="3.53612">
        <ele>508</ele>
        <time>2018-06-03T09:50:04.375Z</time>
      </trkpt>
      <trkpt lat="43.76003" lon="3.5358">
        <ele>506</ele>
        <time>2018-06-03T09:50:05.375Z</time>
      </trkpt>
      <trkpt lat="43.76018" lon="3.53547">
        <ele>506</ele>
        <time>2018-06-03T09:50:06.375Z</time>
      </trkpt>
      <trkpt lat="43.76044" lon="3.53535">
        <ele>507</ele>
        <time>2018-06-03T09:50:07.375Z</time>
      </trkpt>
      <trkpt lat="43.76074" lon="3.53497">
        <ele>508</ele>
        <time>2018-06-03T09:50:08.375Z</time>
      </trkpt>
      <trkpt lat="43.76105" lon="3.53464">
        <ele>508</ele>
        <time>2018-06-03T09:50:09.375Z</time>
      </trkpt>
      <trkpt lat="43.76134" lon="3.5344">
        <ele>505</ele>
        <time>2018-06-03T09:50:10.375Z</time>
      </trkpt>
      <trkpt lat="43.76173" lon="3.53427">
        <ele>500</ele>
        <time>2018-06-03T09:50:11.375Z</time>
      </trkpt>
      <trkpt lat="43.76201" lon="3.53427">
        <ele>496</ele>
        <time>2018-06-03T09:50:12.375Z</time>
      </trkpt>
      <trkpt lat="43.76233" lon="3.53425">
        <ele>493</ele>
        <time>2018-06-03T09:50:13.375Z</time>
      </trkpt>
      <trkpt lat="43.76261" lon="3.53444">
        <ele>488</ele>
        <time>2018-06-03T09:50:14.375Z</time>
      </trkpt>
      <trkpt lat="43.7627" lon="3.5349">
        <ele>485</ele>
        <time>2018-06-03T09:50:15.375Z</time>
      </trkpt>
      <trkpt lat="43.76277" lon="3.53533">
        <ele>486</ele>
        <time>2018-06-03T09:50:16.375Z</time>
      </trkpt>
      <trkpt lat="43.76261" lon="3.53563">
        <ele>489</ele>
        <time>2018-06-03T09:50:17.375Z</time>
      </trkpt>
      <trkpt lat="43.76295" lon="3.53557">
        <ele>485</ele>
        <time>2018-06-03T09:50:18.375Z</time>
      </trkpt>
      <trkpt lat="43.76316" lon="3.53528">
        <ele>481</ele>
        <time>2018-06-03T09:50:19.375Z</time>
      </trkpt>
      <trkpt lat="43.76352" lon="3.53513">
        <ele>476</ele>
        <time>2018-06-03T09:50:20.375Z</time>
      </trkpt>
      <trkpt lat="43.76382" lon="3.53507">
        <ele>473</ele>
        <time>2018-06-03T09:50:21.375Z</time>
      </trkpt>
      <trkpt lat="43.76415" lon="3.535">
        <ele>469</ele>
        <time>2018-06-03T09:50:22.375Z</time>
      </trkpt>
      <trkpt lat="43.76438" lon="3.5348">
        <ele>471</ele>
        <time>2018-06-03T09:50:23.375Z</time>
      </trkpt>
      <trkpt lat="43.76452" lon="3.53437">
        <ele>471</ele>
        <time>2018-06-03T09:50:24.375Z</time>
      </trkpt>
      <trkpt lat="43.76462" lon="3.53397">
        <ele>472</ele>
        <time>2018-06-03T09:50:25.375Z</time>
      </trkpt>
      <trkpt lat="43.76459" lon="3.53353">
        <ele>471</ele>
        <time>2018-06-03T09:50:26.375Z</time>
      </trkpt>
      <trkpt lat="43.76481" lon="3.53321">
        <ele>471</ele>
        <time>2018-06-03T09:50:27.375Z</time>
      </trkpt>
      <trkpt lat="43.76519" lon="3.5331">
        <ele>472</ele>
        <time>2018-06-03T09:50:28.375Z</time>
      </trkpt>
      <trkpt lat="43.76551" lon="3.533">
        <ele>472</ele>
        <time>2018-06-03T09:50:29.375Z</time>
      </trkpt>
      <trkpt lat="43.76568" lon="3.53266">
        <ele>472</ele>
        <time>2018-06-03T09:50:30.375Z</time>
      </trkpt>
      <trkpt lat="43.76569" lon="3.53227">
        <ele>470</ele>
        <time>2018-06-03T09:50:31.375Z</time>
      </trkpt>
      <trkpt lat="43.76582" lon="3.5319">
        <ele>470</ele>
        <time>2018-06-03T09:50:32.375Z</time>
      </trkpt>
      <trkpt lat="43.76601" lon="3.53154">
        <ele>470</ele>
        <time>2018-06-03T09:50:33.375Z</time>
      </trkpt>
      <trkpt lat="43.766" lon="3.53109">
        <ele>471</ele>
        <time>2018-06-03T09:50:34.375Z</time>
      </trkpt>
      <trkpt lat="43.76583" lon="3.53072">
        <ele>470</ele>
        <time>2018-06-03T09:50:35.375Z</time>
      </trkpt>
      <trkpt lat="43.76591" lon="3.53031">
        <ele>472</ele>
        <time>2018-06-03T09:50:36.375Z</time>
      </trkpt>
      <trkpt lat="43.76582" lon="3.52987">
        <ele>473</ele>
        <time>2018-06-03T09:50:37.375Z</time>
      </trkpt>
      <trkpt lat="43.76604" lon="3.52948">
        <ele>475</ele>
        <time>2018-06-03T09:50:38.375Z</time>
      </trkpt>
      <trkpt lat="43.76635" lon="3.52941">
        <ele>477</ele>
        <time>2018-06-03T09:50:39.375Z</time>
      </trkpt>
      <trkpt lat="43.76673" lon="3.5292">
        <ele>480</ele>
        <time>2018-06-03T09:50:40.375Z</time>
      </trkpt>
      <trkpt lat="43.76714" lon="3.52883">
        <ele>484</ele>
        <time>2018-06-03T09:50:41.375Z</time>
      </trkpt>
      <trkpt lat="43.76735" lon="3.52845">
        <ele>485</ele>
        <time>2018-06-03T09:50:42.375Z</time>
      </trkpt>
      <trkpt lat="43.7677" lon="3.52826">
        <ele>488</ele>
        <time>2018-06-03T09:50:43.375Z</time>
      </trkpt>
      <trkpt lat="43.76801" lon="3.52823">
        <ele>491</ele>
        <time>2018-06-03T09:50:44.375Z</time>
      </trkpt>
      <trkpt lat="43.76826" lon="3.52852">
        <ele>493</ele>
        <time>2018-06-03T09:50:45.375Z</time>
      </trkpt>
      <trkpt lat="43.76848" lon="3.52873">
        <ele>494</ele>
        <time>2018-06-03T09:50:46.375Z</time>
      </trkpt>
      <trkpt lat="43.76868" lon="3.52903">
        <ele>494</ele>
        <time>2018-06-03T09:50:47.375Z</time>
      </trkpt>
      <trkpt lat="43.76899" lon="3.52935">
        <ele>495</ele>
        <time>2018-06-03T09:50:48.375Z</time>
      </trkpt>
      <trkpt lat="43.76912" lon="3.52972">
        <ele>494</ele>
        <time>2018-06-03T09:50:49.375Z</time>
      </trkpt>
      <trkpt lat="43.76946" lon="3.53005">
        <ele>494</ele>
        <time>2018-06-03T09:50:50.375Z</time>
      </trkpt>
      <trkpt lat="43.76967" lon="3.53059">
        <ele>492</ele>
        <time>2018-06-03T09:50:51.375Z</time>
      </trkpt>
      <trkpt lat="43.76995" lon="3.53091">
        <ele>492</ele>
        <time>2018-06-03T09:50:52.375Z</time>
      </trkpt>
      <trkpt lat="43.77019" lon="3.53116">
        <ele>493</ele>
        <time>2018-06-03T09:50:53.375Z</time>
      </trkpt>
      <trkpt lat="43.77034" lon="3.53149">
        <ele>492</ele>
        <time>2018-06-03T09:50:54.375Z</time>
      </trkpt>
      <trkpt lat="43.77064" lon="3.53143">
        <ele>494</ele>
        <time>2018-06-03T09:50:55.375Z</time>
      </trkpt>
      <trkpt lat="43.7709" lon="3.53135">
        <ele>495</ele>
        <time>2018-06-03T09:50:56.375Z</time>
      </trkpt>
      <trkpt lat="43.77137" lon="3.53148">
        <ele>500</ele>
        <time>2018-06-03T09:50:57.375Z</time>
      </trkpt>
      <trkpt lat="43.77158" lon="3.53169">
        <ele>502</ele>
        <time>2018-06-03T09:50:58.375Z</time>
      </trkpt>
      <trkpt lat="43.77188" lon="3.53186">
        <ele>505</ele>
        <time>2018-06-03T09:50:59.375Z</time>
      </trkpt>
      <trkpt lat="43.77223" lon="3.53184">
        <ele>510</ele>
        <time>2018-06-03T09:51:00.375Z</time>
      </trkpt>
      <trkpt lat="43.77246" lon="3.53208">
        <ele>512</ele>
        <time>2018-06-03T09:51:01.375Z</time>
      </trkpt>
      <trkpt lat="43.77257" lon="3.53243">
        <ele>513</ele>
        <time>2018-06-03T09:51:02.375Z</time>
      </trkpt>
      <trkpt lat="43.77253" lon="3.53318">
        <ele>511</ele>
        <time>2018-06-03T09:51:03.375Z</time>
      </trkpt>
      <trkpt lat="43.77273" lon="3.53374">
        <ele>511</ele>
        <time>2018-06-03T09:51:04.375Z</time>
      </trkpt>
      <trkpt lat="43.77279" lon="3.53481">
        <ele>507</ele>
        <time>2018-06-03T09:51:05.375Z</time>
      </trkpt>
      <trkpt lat="43.7729" lon="3.53547">
        <ele>507</ele>
        <time>2018-06-03T09:51:06.375Z</time>
      </trkpt>
      <trkpt lat="43.77314" lon="3.5359">
        <ele>508</ele>
        <time>2018-06-03T09:51:07.375Z</time>
      </trkpt>
      <trkpt lat="43.77328" lon="3.53551">
        <ele>509</ele>
        <time>2018-06-03T09:51:08.375Z</time>
      </trkpt>
      <trkpt lat="43.77335" lon="3.53513">
        <ele>510</ele>
        <time>2018-06-03T09:51:09.375Z</time>
      </trkpt>
      <trkpt lat="43.77366" lon="3.53475">
        <ele>513</ele>
        <time>2018-06-03T09:51:10.375Z</time>
      </trkpt>
      <trkpt lat="43.77384" lon="3.53415">
        <ele>518</ele>
        <time>2018-06-03T09:51:11.375Z</time>
      </trkpt>
      <trkpt lat="43.7737" lon="3.53448">
        <ele>514</ele>
        <time>2018-06-03T09:51:12.375Z</time>
      </trkpt>
      <trkpt lat="43.77335" lon="3.53513">
        <ele>510</ele>
        <time>2018-06-03T09:51:13.375Z</time>
      </trkpt>
      <trkpt lat="43.77328" lon="3.53551">
        <ele>509</ele>
        <time>2018-06-03T09:51:14.375Z</time>
      </trkpt>
      <trkpt lat="43.77314" lon="3.5359">
        <ele>508</ele>
        <time>2018-06-03T09:51:15.375Z</time>
      </trkpt>
      <trkpt lat="43.7729" lon="3.53547">
        <ele>507</ele>
        <time>2018-06-03T09:51:16.375Z</time>
      </trkpt>
      <trkpt lat="43.77279" lon="3.53481">
        <ele>507</ele>
        <time>2018-06-03T09:51:17.375Z</time>
      </trkpt>
      <trkpt lat="43.77269" lon="3.53407">
        <ele>509</ele>
        <time>2018-06-03T09:51:18.375Z</time>
      </trkpt>
      <trkpt lat="43.77253" lon="3.53318">
        <ele>511</ele>
        <time>2018-06-03T09:51:19.375Z</time>
      </trkpt>
      <trkpt lat="43.77251" lon="3.53276">
        <ele>512</ele>
        <time>2018-06-03T09:51:20.375Z</time>
      </trkpt>
      <trkpt lat="43.7725" lon="3.53224">
        <ele>512</ele>
        <time>2018-06-03T09:51:21.375Z</time>
      </trkpt>
      <trkpt lat="43.7726" lon="3.53204">
        <ele>514</ele>
        <time>2018-06-03T09:51:22.375Z</time>
      </trkpt>
      <trkpt lat="43.77283" lon="3.5319">
        <ele>517</ele>
        <time>2018-06-03T09:51:23.375Z</time>
      </trkpt>
      <trkpt lat="43.77314" lon="3.53185">
        <ele>521</ele>
        <time>2018-06-03T09:51:24.375Z</time>
      </trkpt>
      <trkpt lat="43.7734" lon="3.53172">
        <ele>525</ele>
        <time>2018-06-03T09:51:25.375Z</time>
      </trkpt>
      <trkpt lat="43.77383" lon="3.53171">
        <ele>531</ele>
        <time>2018-06-03T09:51:26.375Z</time>
      </trkpt>
      <trkpt lat="43.77417" lon="3.53159">
        <ele>536</ele>
        <time>2018-06-03T09:51:27.375Z</time>
      </trkpt>
      <trkpt lat="43.77451" lon="3.53144">
        <ele>543</ele>
        <time>2018-06-03T09:51:28.375Z</time>
      </trkpt>
      <trkpt lat="43.77469" lon="3.53117">
        <ele>548</ele>
        <time>2018-06-03T09:51:29.375Z</time>
      </trkpt>
      <trkpt lat="43.77491" lon="3.53089">
        <ele>555</ele>
        <time>2018-06-03T09:51:30.375Z</time>
      </trkpt>
      <trkpt lat="43.77521" lon="3.53077">
        <ele>561</ele>
        <time>2018-06-03T09:51:31.375Z</time>
      </trkpt>
      <trkpt lat="43.77544" lon="3.53065">
        <ele>566</ele>
        <time>2018-06-03T09:51:32.375Z</time>
      </trkpt>
      <trkpt lat="43.7753" lon="3.53027">
        <ele>568</ele>
        <time>2018-06-03T09:51:33.375Z</time>
      </trkpt>
      <trkpt lat="43.77499" lon="3.52988">
        <ele>568</ele>
        <time>2018-06-03T09:51:34.375Z</time>
      </trkpt>
      <trkpt lat="43.77474" lon="3.52957">
        <ele>570</ele>
        <time>2018-06-03T09:51:35.375Z</time>
      </trkpt>
      <trkpt lat="43.7745" lon="3.5293">
        <ele>573</ele>
        <time>2018-06-03T09:51:36.375Z</time>
      </trkpt>
      <trkpt lat="43.77426" lon="3.52903">
        <ele>576</ele>
        <time>2018-06-03T09:51:37.375Z</time>
      </trkpt>
      <trkpt lat="43.77398" lon="3.52868">
        <ele>580</ele>
        <time>2018-06-03T09:51:38.375Z</time>
      </trkpt>
      <trkpt lat="43.77391" lon="3.52824">
        <ele>590</ele>
        <time>2018-06-03T09:51:39.375Z</time>
      </trkpt>
      <trkpt lat="43.77365" lon="3.5281">
        <ele>590</ele>
        <time>2018-06-03T09:51:40.375Z</time>
      </trkpt>
      <trkpt lat="43.77325" lon="3.52787">
        <ele>590</ele>
        <time>2018-06-03T09:51:41.375Z</time>
      </trkpt>
      <trkpt lat="43.77301" lon="3.5277">
        <ele>589</ele>
        <time>2018-06-03T09:51:42.375Z</time>
      </trkpt>
      <trkpt lat="43.77279" lon="3.52745">
        <ele>591</ele>
        <time>2018-06-03T09:51:43.375Z</time>
      </trkpt>
      <trkpt lat="43.77258" lon="3.52707">
        <ele>595</ele>
        <time>2018-06-03T09:51:44.375Z</time>
      </trkpt>
      <trkpt lat="43.77236" lon="3.52671">
        <ele>596</ele>
        <time>2018-06-03T09:51:45.375Z</time>
      </trkpt>
      <trkpt lat="43.7723" lon="3.52632">
        <ele>600</ele>
        <time>2018-06-03T09:51:46.375Z</time>
      </trkpt>
      <trkpt lat="43.77234" lon="3.52585">
        <ele>609</ele>
        <time>2018-06-03T09:51:47.375Z</time>
      </trkpt>
      <trkpt lat="43.77234" lon="3.52545">
        <ele>615</ele>
        <time>2018-06-03T09:51:48.375Z</time>
      </trkpt>
      <trkpt lat="43.77211" lon="3.52529">
        <ele>610</ele>
        <time>2018-06-03T09:51:49.375Z</time>
      </trkpt>
      <trkpt lat="43.77196" lon="3.525">
        <ele>610</ele>
        <time>2018-06-03T09:51:50.375Z</time>
      </trkpt>
      <trkpt lat="43.77194" lon="3.52462">
        <ele>620</ele>
        <time>2018-06-03T09:51:51.375Z</time>
      </trkpt>
      <trkpt lat="43.77172" lon="3.52435">
        <ele>624</ele>
        <time>2018-06-03T09:51:52.375Z</time>
      </trkpt>
      <trkpt lat="43.77146" lon="3.5242">
        <ele>624</ele>
        <time>2018-06-03T09:51:53.375Z</time>
      </trkpt>
      <trkpt lat="43.7711" lon="3.52399">
        <ele>623</ele>
        <time>2018-06-03T09:51:54.375Z</time>
      </trkpt>
      <trkpt lat="43.77084" lon="3.52372">
        <ele>626</ele>
        <time>2018-06-03T09:51:55.375Z</time>
      </trkpt>
      <trkpt lat="43.7706" lon="3.52342">
        <ele>626</ele>
        <time>2018-06-03T09:51:56.375Z</time>
      </trkpt>
      <trkpt lat="43.77047" lon="3.52309">
        <ele>627</ele>
        <time>2018-06-03T09:51:57.375Z</time>
      </trkpt>
      <trkpt lat="43.7704" lon="3.5227">
        <ele>630</ele>
        <time>2018-06-03T09:51:58.375Z</time>
      </trkpt>
      <trkpt lat="43.77045" lon="3.52231">
        <ele>638</ele>
        <time>2018-06-03T09:51:59.375Z</time>
      </trkpt>
      <trkpt lat="43.77033" lon="3.52195">
        <ele>642</ele>
        <time>2018-06-03T09:52:00.375Z</time>
      </trkpt>
      <trkpt lat="43.77004" lon="3.52179">
        <ele>639</ele>
        <time>2018-06-03T09:52:01.375Z</time>
      </trkpt>
      <trkpt lat="43.7697" lon="3.52162">
        <ele>637</ele>
        <time>2018-06-03T09:52:02.375Z</time>
      </trkpt>
      <trkpt lat="43.76942" lon="3.52143">
        <ele>637</ele>
        <time>2018-06-03T09:52:03.375Z</time>
      </trkpt>
      <trkpt lat="43.7692" lon="3.52107">
        <ele>643</ele>
        <time>2018-06-03T09:52:04.375Z</time>
      </trkpt>
      <trkpt lat="43.76904" lon="3.5207">
        <ele>651</ele>
        <time>2018-06-03T09:52:05.375Z</time>
      </trkpt>
      <trkpt lat="43.76887" lon="3.52028">
        <ele>662</ele>
        <time>2018-06-03T09:52:06.375Z</time>
      </trkpt>
      <trkpt lat="43.76859" lon="3.52024">
        <ele>659</ele>
        <time>2018-06-03T09:52:07.375Z</time>
      </trkpt>
      <trkpt lat="43.76829" lon="3.52013">
        <ele>659</ele>
        <time>2018-06-03T09:52:08.375Z</time>
      </trkpt>
      <trkpt lat="43.76802" lon="3.51993">
        <ele>662</ele>
        <time>2018-06-03T09:52:09.375Z</time>
      </trkpt>
      <trkpt lat="43.76774" lon="3.51979">
        <ele>662</ele>
        <time>2018-06-03T09:52:10.375Z</time>
      </trkpt>
      <trkpt lat="43.76747" lon="3.51961">
        <ele>664</ele>
        <time>2018-06-03T09:52:11.375Z</time>
      </trkpt>
      <trkpt lat="43.76726" lon="3.5194">
        <ele>667</ele>
        <time>2018-06-03T09:52:12.375Z</time>
      </trkpt>
      <trkpt lat="43.76694" lon="3.51921">
        <ele>667</ele>
        <time>2018-06-03T09:52:13.375Z</time>
      </trkpt>
      <trkpt lat="43.76662" lon="3.51902">
        <ele>666</ele>
        <time>2018-06-03T09:52:14.375Z</time>
      </trkpt>
      <trkpt lat="43.7664" lon="3.51873">
        <ele>667</ele>
        <time>2018-06-03T09:52:15.375Z</time>
      </trkpt>
      <trkpt lat="43.7661" lon="3.51842">
        <ele>665</ele>
        <time>2018-06-03T09:52:16.375Z</time>
      </trkpt>
      <trkpt lat="43.76589" lon="3.51811">
        <ele>663</ele>
        <time>2018-06-03T09:52:17.375Z</time>
      </trkpt>
      <trkpt lat="43.76582" lon="3.51766">
        <ele>669</ele>
        <time>2018-06-03T09:52:18.375Z</time>
      </trkpt>
      <trkpt lat="43.76563" lon="3.51741">
        <ele>668</ele>
        <time>2018-06-03T09:52:19.375Z</time>
      </trkpt>
      <trkpt lat="43.7654" lon="3.51717">
        <ele>666</ele>
        <time>2018-06-03T09:52:20.375Z</time>
      </trkpt>
      <trkpt lat="43.76517" lon="3.5168">
        <ele>668</ele>
        <time>2018-06-03T09:52:21.375Z</time>
      </trkpt>
      <trkpt lat="43.76483" lon="3.51637">
        <ele>667</ele>
        <time>2018-06-03T09:52:22.375Z</time>
      </trkpt>
      <trkpt lat="43.76471" lon="3.51597">
        <ele>672</ele>
        <time>2018-06-03T09:52:23.375Z</time>
      </trkpt>
      <trkpt lat="43.76468" lon="3.51553">
        <ele>676</ele>
        <time>2018-06-03T09:52:24.375Z</time>
      </trkpt>
      <trkpt lat="43.76481" lon="3.51511">
        <ele>681</ele>
        <time>2018-06-03T09:52:25.375Z</time>
      </trkpt>
      <trkpt lat="43.76457" lon="3.5147">
        <ele>681</ele>
        <time>2018-06-03T09:52:26.375Z</time>
      </trkpt>
      <trkpt lat="43.76443" lon="3.51438">
        <ele>682</ele>
        <time>2018-06-03T09:52:27.375Z</time>
      </trkpt>
      <trkpt lat="43.76433" lon="3.51385">
        <ele>685</ele>
        <time>2018-06-03T09:52:28.375Z</time>
      </trkpt>
      <trkpt lat="43.76423" lon="3.51345">
        <ele>686</ele>
        <time>2018-06-03T09:52:29.375Z</time>
      </trkpt>
      <trkpt lat="43.7641" lon="3.51293">
        <ele>692</ele>
        <time>2018-06-03T09:52:30.375Z</time>
      </trkpt>
      <trkpt lat="43.76387" lon="3.51244">
        <ele>699</ele>
        <time>2018-06-03T09:52:31.375Z</time>
      </trkpt>
      <trkpt lat="43.7636" lon="3.51215">
        <ele>704</ele>
        <time>2018-06-03T09:52:32.375Z</time>
      </trkpt>
      <trkpt lat="43.76325" lon="3.51201">
        <ele>706</ele>
        <time>2018-06-03T09:52:33.375Z</time>
      </trkpt>
      <trkpt lat="43.76296" lon="3.51194">
        <ele>706</ele>
        <time>2018-06-03T09:52:34.375Z</time>
      </trkpt>
      <trkpt lat="43.76258" lon="3.51187">
        <ele>707</ele>
        <time>2018-06-03T09:52:35.375Z</time>
      </trkpt>
      <trkpt lat="43.76236" lon="3.51166">
        <ele>709</ele>
        <time>2018-06-03T09:52:36.375Z</time>
      </trkpt>
      <trkpt lat="43.76228" lon="3.51131">
        <ele>710</ele>
        <time>2018-06-03T09:52:37.375Z</time>
      </trkpt>
      <trkpt lat="43.7623" lon="3.51088">
        <ele>713</ele>
        <time>2018-06-03T09:52:38.375Z</time>
      </trkpt>
      <trkpt lat="43.76229" lon="3.51033">
        <ele>718</ele>
        <time>2018-06-03T09:52:39.375Z</time>
      </trkpt>
      <trkpt lat="43.76219" lon="3.50993">
        <ele>722</ele>
        <time>2018-06-03T09:52:40.375Z</time>
      </trkpt>
      <trkpt lat="43.76213" lon="3.50949">
        <ele>727</ele>
        <time>2018-06-03T09:52:41.375Z</time>
      </trkpt>
      <trkpt lat="43.76205" lon="3.50913">
        <ele>730</ele>
        <time>2018-06-03T09:52:42.375Z</time>
      </trkpt>
      <trkpt lat="43.76187" lon="3.50866">
        <ele>731</ele>
        <time>2018-06-03T09:52:43.375Z</time>
      </trkpt>
      <trkpt lat="43.76184" lon="3.50816">
        <ele>735</ele>
        <time>2018-06-03T09:52:44.375Z</time>
      </trkpt>
      <trkpt lat="43.76175" lon="3.50772">
        <ele>737</ele>
        <time>2018-06-03T09:52:45.375Z</time>
      </trkpt>
      <trkpt lat="43.76156" lon="3.50714">
        <ele>741</ele>
        <time>2018-06-03T09:52:46.375Z</time>
      </trkpt>
      <trkpt lat="43.76137" lon="3.50675">
        <ele>744</ele>
        <time>2018-06-03T09:52:47.375Z</time>
      </trkpt>
      <trkpt lat="43.76113" lon="3.50645">
        <ele>748</ele>
        <time>2018-06-03T09:52:48.375Z</time>
      </trkpt>
      <trkpt lat="43.76091" lon="3.50626">
        <ele>750</ele>
        <time>2018-06-03T09:52:49.375Z</time>
      </trkpt>
      <trkpt lat="43.76055" lon="3.50587">
        <ele>753</ele>
        <time>2018-06-03T09:52:50.375Z</time>
      </trkpt>
      <trkpt lat="43.76037" lon="3.50558">
        <ele>756</ele>
        <time>2018-06-03T09:52:51.375Z</time>
      </trkpt>
      <trkpt lat="43.76018" lon="3.50506">
        <ele>762</ele>
        <time>2018-06-03T09:52:52.375Z</time>
      </trkpt>
      <trkpt lat="43.76006" lon="3.50464">
        <ele>766</ele>
        <time>2018-06-03T09:52:53.375Z</time>
      </trkpt>
      <trkpt lat="43.75992" lon="3.50426">
        <ele>768</ele>
        <time>2018-06-03T09:52:54.375Z</time>
      </trkpt>
      <trkpt lat="43.7597" lon="3.50402">
        <ele>767</ele>
        <time>2018-06-03T09:52:55.375Z</time>
      </trkpt>
      <trkpt lat="43.75941" lon="3.50374">
        <ele>765</ele>
        <time>2018-06-03T09:52:56.375Z</time>
      </trkpt>
      <trkpt lat="43.75929" lon="3.50322">
        <ele>768</ele>
        <time>2018-06-03T09:52:57.375Z</time>
      </trkpt>
      <trkpt lat="43.75908" lon="3.50285">
        <ele>766</ele>
        <time>2018-06-03T09:52:58.375Z</time>
      </trkpt>
      <trkpt lat="43.75886" lon="3.50262">
        <ele>765</ele>
        <time>2018-06-03T09:52:59.375Z</time>
      </trkpt>
      <trkpt lat="43.75858" lon="3.50254">
        <ele>762</ele>
        <time>2018-06-03T09:53:00.375Z</time>
      </trkpt>
      <trkpt lat="43.75833" lon="3.50231">
        <ele>759</ele>
        <time>2018-06-03T09:53:01.375Z</time>
      </trkpt>
      <trkpt lat="43.75802" lon="3.50218">
        <ele>757</ele>
        <time>2018-06-03T09:53:02.375Z</time>
      </trkpt>
      <trkpt lat="43.75773" lon="3.50206">
        <ele>754</ele>
        <time>2018-06-03T09:53:03.375Z</time>
      </trkpt>
      <trkpt lat="43.75746" lon="3.50188">
        <ele>751</ele>
        <time>2018-06-03T09:53:04.375Z</time>
      </trkpt>
      <trkpt lat="43.75708" lon="3.50182">
        <ele>750</ele>
        <time>2018-06-03T09:53:05.375Z</time>
      </trkpt>
      <trkpt lat="43.7567" lon="3.50184">
        <ele>749</ele>
        <time>2018-06-03T09:53:06.375Z</time>
      </trkpt>
      <trkpt lat="43.75642" lon="3.50191">
        <ele>745</ele>
        <time>2018-06-03T09:53:07.375Z</time>
      </trkpt>
      <trkpt lat="43.75639" lon="3.50149">
        <ele>743</ele>
        <time>2018-06-03T09:53:08.375Z</time>
      </trkpt>
      <trkpt lat="43.75641" lon="3.50107">
        <ele>741</ele>
        <time>2018-06-03T09:53:09.375Z</time>
      </trkpt>
      <trkpt lat="43.75643" lon="3.50068">
        <ele>738</ele>
        <time>2018-06-03T09:53:10.375Z</time>
      </trkpt>
      <trkpt lat="43.75613" lon="3.50078">
        <ele>738</ele>
        <time>2018-06-03T09:53:11.375Z</time>
      </trkpt>
      <trkpt lat="43.75576" lon="3.50082">
        <ele>736</ele>
        <time>2018-06-03T09:53:12.375Z</time>
      </trkpt>
      <trkpt lat="43.75549" lon="3.50069">
        <ele>732</ele>
        <time>2018-06-03T09:53:13.375Z</time>
      </trkpt>
      <trkpt lat="43.75519" lon="3.5004">
        <ele>729</ele>
        <time>2018-06-03T09:53:14.375Z</time>
      </trkpt>
      <trkpt lat="43.75487" lon="3.50014">
        <ele>729</ele>
        <time>2018-06-03T09:53:15.375Z</time>
      </trkpt>
      <trkpt lat="43.75451" lon="3.49989">
        <ele>730</ele>
        <time>2018-06-03T09:53:16.375Z</time>
      </trkpt>
      <trkpt lat="43.75418" lon="3.49989">
        <ele>732</ele>
        <time>2018-06-03T09:53:17.375Z</time>
      </trkpt>
      <trkpt lat="43.75393" lon="3.49978">
        <ele>735</ele>
        <time>2018-06-03T09:53:18.375Z</time>
      </trkpt>
      <trkpt lat="43.75362" lon="3.49955">
        <ele>739</ele>
        <time>2018-06-03T09:53:19.375Z</time>
      </trkpt>
      <trkpt lat="43.75337" lon="3.49948">
        <ele>742</ele>
        <time>2018-06-03T09:53:20.375Z</time>
      </trkpt>
      <trkpt lat="43.75299" lon="3.49976">
        <ele>748</ele>
        <time>2018-06-03T09:53:21.375Z</time>
      </trkpt>
      <trkpt lat="43.75273" lon="3.49975">
        <ele>751</ele>
        <time>2018-06-03T09:53:22.375Z</time>
      </trkpt>
      <trkpt lat="43.75248" lon="3.50013">
        <ele>754</ele>
        <time>2018-06-03T09:53:23.375Z</time>
      </trkpt>
      <trkpt lat="43.7521" lon="3.49984">
        <ele>758</ele>
        <time>2018-06-03T09:53:24.375Z</time>
      </trkpt>
      <trkpt lat="43.75178" lon="3.49969">
        <ele>761</ele>
        <time>2018-06-03T09:53:25.375Z</time>
      </trkpt>
      <trkpt lat="43.75141" lon="3.49952">
        <ele>762</ele>
        <time>2018-06-03T09:53:26.375Z</time>
      </trkpt>
      <trkpt lat="43.75117" lon="3.49932">
        <ele>762</ele>
        <time>2018-06-03T09:53:27.375Z</time>
      </trkpt>
      <trkpt lat="43.75096" lon="3.49944">
        <ele>763</ele>
        <time>2018-06-03T09:53:28.375Z</time>
      </trkpt>
      <trkpt lat="43.7507" lon="3.49949">
        <ele>763</ele>
        <time>2018-06-03T09:53:29.375Z</time>
      </trkpt>
      <trkpt lat="43.75032" lon="3.4997">
        <ele>763</ele>
        <time>2018-06-03T09:53:30.375Z</time>
      </trkpt>
      <trkpt lat="43.75006" lon="3.49964">
        <ele>764</ele>
        <time>2018-06-03T09:53:31.375Z</time>
      </trkpt>
      <trkpt lat="43.74983" lon="3.49932">
        <ele>766</ele>
        <time>2018-06-03T09:53:32.375Z</time>
      </trkpt>
      <trkpt lat="43.74957" lon="3.49902">
        <ele>769</ele>
        <time>2018-06-03T09:53:33.375Z</time>
      </trkpt>
      <trkpt lat="43.74929" lon="3.49864">
        <ele>774</ele>
        <time>2018-06-03T09:53:34.375Z</time>
      </trkpt>
      <trkpt lat="43.74906" lon="3.49823">
        <ele>779</ele>
        <time>2018-06-03T09:53:35.375Z</time>
      </trkpt>
      <trkpt lat="43.74883" lon="3.49781">
        <ele>782</ele>
        <time>2018-06-03T09:53:36.375Z</time>
      </trkpt>
      <trkpt lat="43.74873" lon="3.49748">
        <ele>783</ele>
        <time>2018-06-03T09:53:37.375Z</time>
      </trkpt>
      <trkpt lat="43.74843" lon="3.49685">
        <ele>783</ele>
        <time>2018-06-03T09:53:38.375Z</time>
      </trkpt>
      <trkpt lat="43.74809" lon="3.49637">
        <ele>782</ele>
        <time>2018-06-03T09:53:39.375Z</time>
      </trkpt>
      <trkpt lat="43.74791" lon="3.4955">
        <ele>783</ele>
        <time>2018-06-03T09:53:40.375Z</time>
      </trkpt>
      <trkpt lat="43.74803" lon="3.49509">
        <ele>784</ele>
        <time>2018-06-03T09:53:41.375Z</time>
      </trkpt>
      <trkpt lat="43.74794" lon="3.49468">
        <ele>785</ele>
        <time>2018-06-03T09:53:42.375Z</time>
      </trkpt>
      <trkpt lat="43.74777" lon="3.49441">
        <ele>785</ele>
        <time>2018-06-03T09:53:43.375Z</time>
      </trkpt>
      <trkpt lat="43.7475" lon="3.49395">
        <ele>785</ele>
        <time>2018-06-03T09:53:44.375Z</time>
      </trkpt>
      <trkpt lat="43.74733" lon="3.49362">
        <ele>787</ele>
        <time>2018-06-03T09:53:45.375Z</time>
      </trkpt>
      <trkpt lat="43.74707" lon="3.49329">
        <ele>791</ele>
        <time>2018-06-03T09:53:46.375Z</time>
      </trkpt>
      <trkpt lat="43.74707" lon="3.49268">
        <ele>787</ele>
        <time>2018-06-03T09:53:47.375Z</time>
      </trkpt>
      <trkpt lat="43.74672" lon="3.49229">
        <ele>788</ele>
        <time>2018-06-03T09:53:48.375Z</time>
      </trkpt>
      <trkpt lat="43.74619" lon="3.49181">
        <ele>786</ele>
        <time>2018-06-03T09:53:49.375Z</time>
      </trkpt>
      <trkpt lat="43.74597" lon="3.49148">
        <ele>785</ele>
        <time>2018-06-03T09:53:50.375Z</time>
      </trkpt>
      <trkpt lat="43.74561" lon="3.49148">
        <ele>786</ele>
        <time>2018-06-03T09:53:51.375Z</time>
      </trkpt>
      <trkpt lat="43.74532" lon="3.49141">
        <ele>788</ele>
        <time>2018-06-03T09:53:52.375Z</time>
      </trkpt>
      <trkpt lat="43.74498" lon="3.49128">
        <ele>789</ele>
        <time>2018-06-03T09:53:53.375Z</time>
      </trkpt>
      <trkpt lat="43.74457" lon="3.49036">
        <ele>793</ele>
        <time>2018-06-03T09:53:54.375Z</time>
      </trkpt>
      <trkpt lat="43.74443" lon="3.49007">
        <ele>796</ele>
        <time>2018-06-03T09:53:55.375Z</time>
      </trkpt>
      <trkpt lat="43.74405" lon="3.48957">
        <ele>799</ele>
        <time>2018-06-03T09:53:56.375Z</time>
      </trkpt>
      <trkpt lat="43.7439" lon="3.48921">
        <ele>801</ele>
        <time>2018-06-03T09:53:57.375Z</time>
      </trkpt>
      <trkpt lat="43.7436" lon="3.48876">
        <ele>802</ele>
        <time>2018-06-03T09:53:58.375Z</time>
      </trkpt>
      <trkpt lat="43.7437" lon="3.48829">
        <ele>805</ele>
        <time>2018-06-03T09:53:59.375Z</time>
      </trkpt>
      <trkpt lat="43.74393" lon="3.48825">
        <ele>808</ele>
        <time>2018-06-03T09:54:00.375Z</time>
      </trkpt>
      <trkpt lat="43.74426" lon="3.48797">
        <ele>812</ele>
        <time>2018-06-03T09:54:01.375Z</time>
      </trkpt>
      <trkpt lat="43.74457" lon="3.48779">
        <ele>814</ele>
        <time>2018-06-03T09:54:02.375Z</time>
      </trkpt>
      <trkpt lat="43.74495" lon="3.48775">
        <ele>815</ele>
        <time>2018-06-03T09:54:03.375Z</time>
      </trkpt>
      <trkpt lat="43.74515" lon="3.48736">
        <ele>813</ele>
        <time>2018-06-03T09:54:04.375Z</time>
      </trkpt>
      <trkpt lat="43.74519" lon="3.48701">
        <ele>812</ele>
        <time>2018-06-03T09:54:05.375Z</time>
      </trkpt>
      <trkpt lat="43.74487" lon="3.48648">
        <ele>815</ele>
        <time>2018-06-03T09:54:06.375Z</time>
      </trkpt>
      <trkpt lat="43.74454" lon="3.48635">
        <ele>818</ele>
        <time>2018-06-03T09:54:07.375Z</time>
      </trkpt>
      <trkpt lat="43.74451" lon="3.48593">
        <ele>818</ele>
        <time>2018-06-03T09:54:08.375Z</time>
      </trkpt>
      <trkpt lat="43.7445" lon="3.48563">
        <ele>813</ele>
        <time>2018-06-03T09:54:09.375Z</time>
      </trkpt>
      <trkpt lat="43.7447" lon="3.48533">
        <ele>807</ele>
        <time>2018-06-03T09:54:10.375Z</time>
      </trkpt>
      <trkpt lat="43.74506" lon="3.48539">
        <ele>807</ele>
        <time>2018-06-03T09:54:11.375Z</time>
      </trkpt>
      <trkpt lat="43.74539" lon="3.48562">
        <ele>805</ele>
        <time>2018-06-03T09:54:12.375Z</time>
      </trkpt>
      <trkpt lat="43.74555" lon="3.48551">
        <ele>801</ele>
        <time>2018-06-03T09:54:13.375Z</time>
      </trkpt>
      <trkpt lat="43.74549" lon="3.48524">
        <ele>798</ele>
        <time>2018-06-03T09:54:14.375Z</time>
      </trkpt>
      <trkpt lat="43.74579" lon="3.48523">
        <ele>793</ele>
        <time>2018-06-03T09:54:15.375Z</time>
      </trkpt>
      <trkpt lat="43.746" lon="3.48536">
        <ele>791</ele>
        <time>2018-06-03T09:54:16.375Z</time>
      </trkpt>
      <trkpt lat="43.74632" lon="3.48544">
        <ele>786</ele>
        <time>2018-06-03T09:54:17.375Z</time>
      </trkpt>
      <trkpt lat="43.74655" lon="3.48537">
        <ele>780</ele>
        <time>2018-06-03T09:54:18.375Z</time>
      </trkpt>
      <trkpt lat="43.74641" lon="3.48507">
        <ele>778</ele>
        <time>2018-06-03T09:54:19.375Z</time>
      </trkpt>
      <trkpt lat="43.74666" lon="3.48504">
        <ele>772</ele>
        <time>2018-06-03T09:54:20.375Z</time>
      </trkpt>
      <trkpt lat="43.74658" lon="3.48466">
        <ele>764</ele>
        <time>2018-06-03T09:54:21.375Z</time>
      </trkpt>
      <trkpt lat="43.74685" lon="3.48468">
        <ele>760</ele>
        <time>2018-06-03T09:54:22.375Z</time>
      </trkpt>
      <trkpt lat="43.74714" lon="3.48475">
        <ele>757</ele>
        <time>2018-06-03T09:54:23.375Z</time>
      </trkpt>
      <trkpt lat="43.74712" lon="3.48449">
        <ele>752</ele>
        <time>2018-06-03T09:54:24.375Z</time>
      </trkpt>
      <trkpt lat="43.74707" lon="3.48424">
        <ele>748</ele>
        <time>2018-06-03T09:54:25.375Z</time>
      </trkpt>
      <trkpt lat="43.74731" lon="3.48415">
        <ele>744</ele>
        <time>2018-06-03T09:54:26.375Z</time>
      </trkpt>
      <trkpt lat="43.74756" lon="3.48409">
        <ele>739</ele>
        <time>2018-06-03T09:54:27.375Z</time>
      </trkpt>
      <trkpt lat="43.74789" lon="3.4841">
        <ele>735</ele>
        <time>2018-06-03T09:54:28.375Z</time>
      </trkpt>
      <trkpt lat="43.74822" lon="3.48392">
        <ele>728</ele>
        <time>2018-06-03T09:54:29.375Z</time>
      </trkpt>
      <trkpt lat="43.74844" lon="3.4838">
        <ele>724</ele>
        <time>2018-06-03T09:54:30.375Z</time>
      </trkpt>
      <trkpt lat="43.74866" lon="3.48351">
        <ele>719</ele>
        <time>2018-06-03T09:54:31.375Z</time>
      </trkpt>
      <trkpt lat="43.74887" lon="3.48335">
        <ele>716</ele>
        <time>2018-06-03T09:54:32.375Z</time>
      </trkpt>
      <trkpt lat="43.7493" lon="3.48287">
        <ele>708</ele>
        <time>2018-06-03T09:54:33.375Z</time>
      </trkpt>
      <trkpt lat="43.74953" lon="3.48254">
        <ele>703</ele>
        <time>2018-06-03T09:54:34.375Z</time>
      </trkpt>
      <trkpt lat="43.74975" lon="3.4822">
        <ele>699</ele>
        <time>2018-06-03T09:54:35.375Z</time>
      </trkpt>
      <trkpt lat="43.75004" lon="3.48189">
        <ele>695</ele>
        <time>2018-06-03T09:54:36.375Z</time>
      </trkpt>
      <trkpt lat="43.7503" lon="3.48169">
        <ele>694</ele>
        <time>2018-06-03T09:54:37.375Z</time>
      </trkpt>
      <trkpt lat="43.75052" lon="3.48143">
        <ele>692</ele>
        <time>2018-06-03T09:54:38.375Z</time>
      </trkpt>
      <trkpt lat="43.75077" lon="3.48109">
        <ele>691</ele>
        <time>2018-06-03T09:54:39.375Z</time>
      </trkpt>
      <trkpt lat="43.75094" lon="3.48084">
        <ele>690</ele>
        <time>2018-06-03T09:54:40.375Z</time>
      </trkpt>
      <trkpt lat="43.75121" lon="3.48045">
        <ele>687</ele>
        <time>2018-06-03T09:54:41.375Z</time>
      </trkpt>
      <trkpt lat="43.75146" lon="3.48026">
        <ele>686</ele>
        <time>2018-06-03T09:54:42.375Z</time>
      </trkpt>
      <trkpt lat="43.75173" lon="3.48026">
        <ele>686</ele>
        <time>2018-06-03T09:54:43.375Z</time>
      </trkpt>
      <trkpt lat="43.752" lon="3.48001">
        <ele>684</ele>
        <time>2018-06-03T09:54:44.375Z</time>
      </trkpt>
      <trkpt lat="43.75233" lon="3.47982">
        <ele>682</ele>
        <time>2018-06-03T09:54:45.375Z</time>
      </trkpt>
      <trkpt lat="43.7526" lon="3.47985">
        <ele>682</ele>
        <time>2018-06-03T09:54:46.375Z</time>
      </trkpt>
      <trkpt lat="43.75284" lon="3.47963">
        <ele>680</ele>
        <time>2018-06-03T09:54:47.375Z</time>
      </trkpt>
      <trkpt lat="43.75305" lon="3.47948">
        <ele>680</ele>
        <time>2018-06-03T09:54:48.375Z</time>
      </trkpt>
      <trkpt lat="43.75308" lon="3.47915">
        <ele>679</ele>
        <time>2018-06-03T09:54:49.375Z</time>
      </trkpt>
      <trkpt lat="43.75292" lon="3.47893">
        <ele>678</ele>
        <time>2018-06-03T09:54:50.375Z</time>
      </trkpt>
      <trkpt lat="43.75297" lon="3.47859">
        <ele>678</ele>
        <time>2018-06-03T09:54:51.375Z</time>
      </trkpt>
      <trkpt lat="43.75291" lon="3.47804">
        <ele>677</ele>
        <time>2018-06-03T09:54:52.375Z</time>
      </trkpt>
      <trkpt lat="43.75283" lon="3.47752">
        <ele>676</ele>
        <time>2018-06-03T09:54:53.375Z</time>
      </trkpt>
      <trkpt lat="43.75275" lon="3.47689">
        <ele>676</ele>
        <time>2018-06-03T09:54:54.375Z</time>
      </trkpt>
      <trkpt lat="43.75266" lon="3.47632">
        <ele>676</ele>
        <time>2018-06-03T09:54:55.375Z</time>
      </trkpt>
      <trkpt lat="43.75267" lon="3.47601">
        <ele>676</ele>
        <time>2018-06-03T09:54:56.375Z</time>
      </trkpt>
      <trkpt lat="43.75269" lon="3.47546">
        <ele>676</ele>
        <time>2018-06-03T09:54:57.375Z</time>
      </trkpt>
      <trkpt lat="43.75265" lon="3.47509">
        <ele>677</ele>
        <time>2018-06-03T09:54:58.375Z</time>
      </trkpt>
      <trkpt lat="43.7526" lon="3.47459">
        <ele>678</ele>
        <time>2018-06-03T09:54:59.375Z</time>
      </trkpt>
      <trkpt lat="43.7526" lon="3.4741">
        <ele>679</ele>
        <time>2018-06-03T09:55:00.375Z</time>
      </trkpt>
      <trkpt lat="43.75259" lon="3.4736">
        <ele>679</ele>
        <time>2018-06-03T09:55:01.375Z</time>
      </trkpt>
      <trkpt lat="43.75264" lon="3.47309">
        <ele>679</ele>
        <time>2018-06-03T09:55:02.375Z</time>
      </trkpt>
      <trkpt lat="43.7526" lon="3.47271">
        <ele>680</ele>
        <time>2018-06-03T09:55:03.375Z</time>
      </trkpt>
      <trkpt lat="43.75261" lon="3.47236">
        <ele>681</ele>
        <time>2018-06-03T09:55:04.375Z</time>
      </trkpt>
      <trkpt lat="43.75263" lon="3.47185">
        <ele>681</ele>
        <time>2018-06-03T09:55:05.375Z</time>
      </trkpt>
      <trkpt lat="43.75267" lon="3.47147">
        <ele>682</ele>
        <time>2018-06-03T09:55:06.375Z</time>
      </trkpt>
      <trkpt lat="43.75274" lon="3.47098">
        <ele>682</ele>
        <time>2018-06-03T09:55:07.375Z</time>
      </trkpt>
      <trkpt lat="43.75282" lon="3.47048">
        <ele>684</ele>
        <time>2018-06-03T09:55:08.375Z</time>
      </trkpt>
      <trkpt lat="43.7529" lon="3.47014">
        <ele>685</ele>
        <time>2018-06-03T09:55:09.375Z</time>
      </trkpt>
      <trkpt lat="43.75294" lon="3.46982">
        <ele>685</ele>
        <time>2018-06-03T09:55:10.375Z</time>
      </trkpt>
      <trkpt lat="43.75308" lon="3.46946">
        <ele>686</ele>
        <time>2018-06-03T09:55:11.375Z</time>
      </trkpt>
      <trkpt lat="43.75325" lon="3.46916">
        <ele>686</ele>
        <time>2018-06-03T09:55:12.375Z</time>
      </trkpt>
      <trkpt lat="43.75342" lon="3.46887">
        <ele>686</ele>
        <time>2018-06-03T09:55:13.375Z</time>
      </trkpt>
      <trkpt lat="43.75359" lon="3.46841">
        <ele>687</ele>
        <time>2018-06-03T09:55:14.375Z</time>
      </trkpt>
      <trkpt lat="43.75377" lon="3.46817">
        <ele>688</ele>
        <time>2018-06-03T09:55:15.375Z</time>
      </trkpt>
      <trkpt lat="43.75407" lon="3.46787">
        <ele>690</ele>
        <time>2018-06-03T09:55:16.375Z</time>
      </trkpt>
      <trkpt lat="43.75421" lon="3.46746">
        <ele>691</ele>
        <time>2018-06-03T09:55:17.375Z</time>
      </trkpt>
      <trkpt lat="43.75437" lon="3.46721">
        <ele>693</ele>
        <time>2018-06-03T09:55:18.375Z</time>
      </trkpt>
      <trkpt lat="43.75456" lon="3.467">
        <ele>694</ele>
        <time>2018-06-03T09:55:19.375Z</time>
      </trkpt>
      <trkpt lat="43.75452" lon="3.46672">
        <ele>695</ele>
        <time>2018-06-03T09:55:20.375Z</time>
      </trkpt>
      <trkpt lat="43.75474" lon="3.46617">
        <ele>694</ele>
        <time>2018-06-03T09:55:21.375Z</time>
      </trkpt>
      <trkpt lat="43.75501" lon="3.46591">
        <ele>693</ele>
        <time>2018-06-03T09:55:22.375Z</time>
      </trkpt>
      <trkpt lat="43.75526" lon="3.46568">
        <ele>692</ele>
        <time>2018-06-03T09:55:23.375Z</time>
      </trkpt>
      <trkpt lat="43.75551" lon="3.46567">
        <ele>692</ele>
        <time>2018-06-03T09:55:24.375Z</time>
      </trkpt>
      <trkpt lat="43.75585" lon="3.46564">
        <ele>691</ele>
        <time>2018-06-03T09:55:25.375Z</time>
      </trkpt>
      <trkpt lat="43.75688" lon="3.46641">
        <ele>693</ele>
        <time>2018-06-03T09:55:26.375Z</time>
      </trkpt>
      <trkpt lat="43.75801" lon="3.4665">
        <ele>691</ele>
        <time>2018-06-03T09:55:27.375Z</time>
      </trkpt>
      <trkpt lat="43.75842" lon="3.4661">
        <ele>691</ele>
        <time>2018-06-03T09:55:28.375Z</time>
      </trkpt>
      <trkpt lat="43.75962" lon="3.46657">
        <ele>693</ele>
        <time>2018-06-03T09:55:29.375Z</time>
      </trkpt>
      <trkpt lat="43.76142" lon="3.4672">
        <ele>695</ele>
        <time>2018-06-03T09:55:30.375Z</time>
      </trkpt>
      <trkpt lat="43.76199" lon="3.46755">
        <ele>695</ele>
        <time>2018-06-03T09:55:31.375Z</time>
      </trkpt>
      <trkpt lat="43.76222" lon="3.46765">
        <ele>694</ele>
        <time>2018-06-03T09:55:32.375Z</time>
      </trkpt>
      <trkpt lat="43.76253" lon="3.46733">
        <ele>692</ele>
        <time>2018-06-03T09:55:33.375Z</time>
      </trkpt>
      <trkpt lat="43.76286" lon="3.46733">
        <ele>693</ele>
        <time>2018-06-03T09:55:34.375Z</time>
      </trkpt>
      <trkpt lat="43.76324" lon="3.46739">
        <ele>693</ele>
        <time>2018-06-03T09:55:35.375Z</time>
      </trkpt>
      <trkpt lat="43.76399" lon="3.46718">
        <ele>695</ele>
        <time>2018-06-03T09:55:36.375Z</time>
      </trkpt>
    </trkseg>
  </trk>
</gpx>